Alar, China
Current Conditions -  °F | °C
As of 7:00 PM on Sunday 21 Dec 2014 (Local Time) from ZWSH Reporting Station
Clear Clear  
Wind Chill: 25°   Ceiling: Unl
Heat Index: 30°   Visibility: 5mi
Dew Point: 12°   Wind: 4mph
Humidity: 47%   Direction: 100°E
Pressure: 30.18"   Gusts: NA
Location:  40.5°N, 81.05°E
Report Text: ZWSH 211100Z 10002MPS 8000 NSC M01/M11 Q1022 NOSIG
Loading
Personal Weather Stations






























Interactive Weather Map New forecast layout! Learn more

10-Day Weather Forecast

Advertisements
Track Severe Weather on mobile